createdAt,value
2019-05-13T00:00:03.921Z,98545.44
2019-05-13T00:05:09.487Z,98539.29
2019-05-13T00:10:14.986Z,98529.93
2019-05-13T00:15:20.621Z,98533.91
2019-05-13T00:20:25.797Z,98532.66
2019-05-13T00:25:33.611Z,98525.11
2019-05-13T00:30:38.122Z,98529.56
2019-05-13T00:35:44.197Z,98523.15
2019-05-13T00:40:49.644Z,98527.48
2019-05-13T00:45:54.717Z,98525.34
2019-05-13T00:50:59.921Z,98518.70
2019-05-13T00:56:05.552Z,98531.95
2019-05-13T01:01:11.297Z,98523.89
2019-05-13T01:06:16.757Z,98522.23
2019-05-13T01:11:23.635Z,98511.65
2019-05-13T01:16:29.114Z,98527.16
2019-05-13T01:21:34.659Z,98521.30
2019-05-13T01:26:39.735Z,98520.58
2019-05-13T01:31:45.499Z,98519.38
2019-05-13T01:36:50.858Z,98522.14
2019-05-13T01:41:56.218Z,98513.34
2019-05-13T01:47:01.205Z,98514.80
2019-05-13T01:52:06.280Z,98511.68
2019-05-13T01:57:14.134Z,98510.05
2019-05-13T02:02:18.920Z,98523.69
2019-05-13T02:07:24.462Z,98525.95
2019-05-13T02:12:30.254Z,98522.84
2019-05-13T02:17:35.681Z,98526.64
2019-05-13T02:22:41.069Z,98526.25
2019-05-13T02:27:46.117Z,98536.23
2019-05-13T02:32:53.101Z,98530.70
2019-05-13T02:38:14.621Z,98529.03
2019-05-13T02:43:05.196Z,98529.50
2019-05-13T02:48:12.645Z,98533.02
2019-05-13T02:53:17.320Z,98524.63
2019-05-13T02:58:24.388Z,98532.27
2019-05-13T03:03:32.691Z,98530.08
2019-05-13T03:08:46.142Z,98526.55
2019-05-13T03:13:44.674Z,98532.23
2019-05-13T03:18:52.332Z,98531.84
2019-05-13T03:23:57.197Z,98530.58
2019-05-13T03:29:02.983Z,98528.17
2019-05-13T03:34:08.241Z,98536.66
2019-05-13T03:39:16.448Z,98535.27
2019-05-13T03:44:24.037Z,98535.30
2019-05-13T03:49:32.856Z,98540.00
2019-05-13T03:54:38.119Z,98549.55
2019-05-13T03:59:44.018Z,98546.00
2019-05-13T04:04:49.147Z,98562.91
2019-05-13T04:09:54.849Z,98564.56
2019-05-13T04:15:03.579Z,98565.27
2019-05-13T04:20:12.370Z,98564.62
2019-05-13T04:25:15.611Z,98571.61
2019-05-13T04:30:22.343Z,98578.64
2019-05-13T04:35:27.601Z,98579.89
2019-05-13T04:40:33.381Z,98582.49
2019-05-13T04:45:38.677Z,98581.75
2019-05-13T04:50:44.430Z,98585.14
2019-05-13T04:55:52.633Z,98590.00
2019-05-13T05:01:08.807Z,98602.13
2019-05-13T05:06:42.546Z,98602.04
2019-05-13T05:12:23.206Z,98594.59
2019-05-13T05:17:54.092Z,98598.66
2019-05-13T05:23:31.960Z,98599.27
2019-05-13T05:29:02.177Z,98599.38
2019-05-13T05:34:46.009Z,98599.16
2019-05-13T05:39:53.698Z,98611.88
2019-05-13T05:45:02.732Z,98608.00
2019-05-13T05:50:08.297Z,98612.00
2019-05-13T05:55:13.669Z,98599.50
2019-05-13T06:00:21.881Z,98603.00
2019-05-13T06:05:27.497Z,98594.31
2019-05-13T06:10:46.414Z,98605.56
2019-05-13T06:15:41.935Z,98610.16
2019-05-13T06:20:46.462Z,98619.34
2019-05-13T06:25:52.848Z,98626.06
2019-05-13T06:30:58.543Z,98629.47
2019-05-13T06:36:04.437Z,98632.77
2019-05-13T06:41:14.067Z,98631.66
2019-05-13T06:46:16.996Z,98632.59
2019-05-13T06:51:22.307Z,98646.05
2019-05-13T06:56:28.334Z,98655.48
2019-05-13T07:01:34.611Z,98649.99
2019-05-13T07:06:41.769Z,98658.64
2019-05-13T07:11:46.831Z,98654.53
2019-05-13T07:16:52.591Z,98655.14
2019-05-13T07:21:57.815Z,98653.95
2019-05-13T07:27:02.883Z,98647.41
2019-05-13T07:32:08.274Z,98648.56
2019-05-13T07:37:14.145Z,98650.88
2019-05-13T07:42:19.230Z,98652.98
2019-05-13T07:47:24.874Z,98654.27
2019-05-13T07:52:31.981Z,98638.05
2019-05-13T07:57:37.518Z,98640.28
2019-05-13T08:02:43.027Z,98641.95
2019-05-13T08:07:48.152Z,98639.08
2019-05-13T08:12:53.227Z,98644.63
2019-05-13T08:18:01.807Z,98652.20
2019-05-13T08:23:05.464Z,98648.60
2019-05-13T08:28:12.289Z,98647.83
2019-05-13T08:33:17.594Z,98643.37
2019-05-13T08:38:23.074Z,98650.88
2019-05-13T08:43:28.175Z,98644.66
2019-05-13T08:48:33.589Z,98642.59
2019-05-13T08:53:39.043Z,98646.61
2019-05-13T08:58:44.127Z,98631.11
2019-05-13T09:03:49.170Z,98637.30
2019-05-13T09:08:54.756Z,98650.55
2019-05-13T09:14:02.329Z,98639.39
2019-05-13T09:19:07.770Z,98644.06
2019-05-13T09:24:25.333Z,98644.77
2019-05-13T09:29:19.451Z,98634.42
2019-05-13T09:34:24.650Z,98630.70
2019-05-13T09:39:32.078Z,98619.09
2019-05-13T09:44:36.771Z,98627.35
2019-05-13T09:49:42.326Z,98632.92
2019-05-13T09:54:48.380Z,98632.34
2019-05-13T09:59:53.522Z,98622.98
2019-05-13T10:04:58.975Z,98617.00
2019-05-13T10:10:04.749Z,98619.66
2019-05-13T10:15:12.671Z,98621.02
2019-05-13T10:20:24.223Z,98615.38
2019-05-13T10:25:29.313Z,98603.43
2019-05-13T10:30:34.900Z,98594.29
2019-05-13T10:35:43.027Z,98591.44
2019-05-13T10:40:48.568Z,98589.91
2019-05-13T10:45:53.791Z,98584.13
2019-05-13T10:51:02.266Z,98585.81
2019-05-13T10:56:06.845Z,98589.93
2019-05-13T11:01:12.279Z,98590.66
2019-05-13T11:06:17.507Z,98587.55
2019-05-13T11:11:22.971Z,98598.89
2019-05-13T11:16:28.618Z,98587.81
2019-05-13T11:21:33.838Z,98581.80
2019-05-13T11:26:41.651Z,98587.02
2019-05-13T11:31:46.610Z,98589.27
2019-05-13T11:36:53.148Z,98573.44
2019-05-13T11:42:02.064Z,98573.05
2019-05-13T11:47:06.035Z,98575.39
2019-05-13T11:52:12.113Z,98570.38
2019-05-13T11:57:17.745Z,98571.49
2019-05-13T12:02:23.477Z,98561.63
2019-05-13T12:07:28.878Z,98558.89
2019-05-13T12:12:34.813Z,98556.55
2019-05-13T12:17:42.904Z,98554.14
2019-05-13T12:22:47.047Z,98540.87
2019-05-13T12:27:52.321Z,98531.20
2019-05-13T12:32:58.332Z,98533.25
2019-05-13T12:38:03.894Z,98529.45
2019-05-13T12:43:12.607Z,98529.18
2019-05-13T12:48:16.263Z,98531.69
2019-05-13T12:53:22.321Z,98530.94
2019-05-13T12:58:28.086Z,98519.51
2019-05-13T13:03:33.180Z,98513.43
2019-05-13T13:08:47.541Z,98517.29
2019-05-13T13:13:58.629Z,98519.45
2019-05-13T13:18:52.717Z,98517.88
2019-05-13T13:23:58.519Z,98516.83
2019-05-13T13:29:03.707Z,98519.88
2019-05-13T13:34:13.551Z,98506.25
2019-05-13T13:39:16.264Z,98511.63
2019-05-13T13:44:24.667Z,98507.13
2019-05-13T13:49:34.523Z,98503.94
2019-05-13T13:54:36.258Z,98512.53
2019-05-13T14:00:14.154Z,98499.10
2019-05-13T14:04:53.646Z,98482.23
2019-05-13T14:09:56.294Z,98491.70
2019-05-13T14:15:02.125Z,98483.54
2019-05-13T14:20:07.735Z,98488.27
2019-05-13T14:25:13.702Z,98474.44
2019-05-13T14:30:21.241Z,98470.63
2019-05-13T14:35:26.338Z,98465.29
2019-05-13T14:40:32.035Z,98453.87
2019-05-13T14:45:37.084Z,98461.25
2019-05-13T14:50:42.328Z,98449.72
2019-05-13T14:55:48.189Z,98453.30
2019-05-13T15:01:11.482Z,98449.40
2019-05-13T15:06:01.538Z,98438.73
2019-05-13T15:11:07.399Z,98448.45
2019-05-13T15:16:12.942Z,98437.54
2019-05-13T15:21:18.239Z,98449.59
2019-05-13T15:26:23.453Z,98420.07
2019-05-13T15:31:31.423Z,98435.88
2019-05-13T15:36:36.217Z,98427.53
2019-05-13T15:41:41.881Z,98431.05
2019-05-13T15:46:47.648Z,98428.28
2019-05-13T15:51:52.718Z,98418.19
2019-05-13T15:56:58.217Z,98423.84
2019-05-13T16:02:03.356Z,98415.21
2019-05-13T16:07:08.945Z,98408.09
2019-05-13T16:12:14.448Z,98406.98
2019-05-13T16:17:30.647Z,98417.16
2019-05-13T16:22:27.209Z,98415.68
2019-05-13T16:27:32.986Z,98408.95
2019-05-13T16:32:39.130Z,98403.51
2019-05-13T16:37:44.506Z,98400.28
2019-05-13T16:42:51.774Z,98398.04
2019-05-13T16:47:59.834Z,98402.75
2019-05-13T16:53:03.466Z,98402.66
2019-05-13T16:58:08.914Z,98403.05
2019-05-13T17:03:14.055Z,98404.91
2019-05-13T17:08:19.940Z,98406.41
2019-05-13T17:13:25.438Z,98411.31
2019-05-13T17:18:32.471Z,98416.50
2019-05-13T17:23:38.172Z,98419.61
2019-05-13T17:28:43.235Z,98427.48
2019-05-13T17:33:51.816Z,98432.98
2019-05-13T17:38:56.912Z,98437.69
2019-05-13T17:44:02.580Z,98438.63
2019-05-13T17:49:08.033Z,98440.27
2019-05-13T17:54:13.495Z,98443.28
2019-05-13T17:59:19.054Z,98447.11
2019-05-13T18:04:24.230Z,98442.07
2019-05-13T18:09:31.798Z,98440.34
2019-05-13T18:14:37.114Z,98439.27
2019-05-13T18:19:42.428Z,98442.70
2019-05-13T18:24:48.206Z,98435.22
2019-05-13T18:29:53.768Z,98438.78
2019-05-13T18:35:01.477Z,98443.64
2019-05-13T18:40:06.726Z,98438.27
2019-05-13T18:45:12.603Z,98434.52
2019-05-13T18:50:17.862Z,98450.69
2019-05-13T18:55:23.010Z,98450.34
2019-05-13T19:00:28.471Z,98451.74
2019-05-13T19:05:33.877Z,98451.44
2019-05-13T19:10:38.971Z,98466.47
2019-05-13T19:15:44.271Z,98463.70
2019-05-13T19:20:51.315Z,98468.86
2019-05-13T19:25:56.362Z,98470.57
2019-05-13T19:31:02.168Z,98480.23
2019-05-13T19:36:07.933Z,98480.99
2019-05-13T19:41:13.381Z,98482.80
2019-05-13T19:46:19.154Z,98481.27
2019-05-13T19:51:28.307Z,98485.15
2019-05-13T19:56:32.571Z,98493.83
2019-05-13T20:01:38.404Z,98491.16
2019-05-13T20:06:43.546Z,98488.79
2019-05-13T20:11:54.999Z,98486.41
2019-05-13T20:16:56.568Z,98492.52
2019-05-13T20:22:02.350Z,98485.69
2019-05-13T20:27:07.909Z,98489.66
2019-05-13T20:32:13.189Z,98485.27
2019-05-13T20:37:18.286Z,98490.10
2019-05-13T20:42:23.970Z,98492.42
2019-05-13T20:47:29.698Z,98495.73
2019-05-13T20:52:35.013Z,98497.88
2019-05-13T20:57:41.717Z,98495.06
2019-05-13T21:02:47.209Z,98493.56
2019-05-13T21:07:53.274Z,98494.42
2019-05-13T21:12:59.053Z,98500.84
2019-05-13T21:18:04.277Z,98497.55
2019-05-13T21:23:11.299Z,98498.31
2019-05-13T21:28:16.508Z,98494.66
2019-05-13T21:33:22.257Z,98488.00
2019-05-13T21:38:27.560Z,98485.66
2019-05-13T21:43:32.919Z,98483.78
2019-05-13T21:48:37.977Z,98484.89
2019-05-13T21:53:43.130Z,98481.33
2019-05-13T21:58:48.274Z,98477.76
2019-05-13T22:03:53.545Z,98473.56
2019-05-13T22:08:58.824Z,98467.55
2019-05-13T22:14:04.234Z,98468.92
2019-05-13T22:19:09.381Z,98458.91
2019-05-13T22:24:14.465Z,98457.51
2019-05-13T22:29:22.963Z,98450.58
2019-05-13T22:34:27.762Z,98454.69
2019-05-13T22:39:34.829Z,98457.88
2019-05-13T22:44:41.779Z,98459.32
2019-05-13T22:49:47.189Z,98455.27
2019-05-13T22:54:52.567Z,98456.13
2019-05-13T22:59:58.332Z,98448.73
2019-05-13T23:05:03.511Z,98446.67
2019-05-13T23:10:11.621Z,98441.22
2019-05-13T23:15:16.545Z,98439.99
2019-05-13T23:20:21.893Z,98432.19
2019-05-13T23:25:27.698Z,98424.02
2019-05-13T23:30:33.559Z,98422.93
2019-05-13T23:35:41.548Z,98418.49
2019-05-13T23:40:45.920Z,98407.76
2019-05-13T23:45:51.395Z,98401.41
2019-05-13T23:50:56.444Z,98408.63
2019-05-13T23:56:02.149Z,98389.50
